WARR/SUB METAR and TAF weather

Enter ICAO airport designator
Station Type Date Time Source
WARR METAR 2021/09/28 16:00 UTC NOAA

WARR 281600Z 22004KT 5000 HZ FEW020 26/22 Q1010 NOSIG


Station Type Date Time Source
WARR Decoded METAR 2021/09/28 16:00 UTC NOAA

Station name not available
Sep 28, 2021 - 12:00 PM EDT / 2021.09.28 1600 UTC
Wind: from the SW (220 degrees) at 5 MPH (4 KT):0
Visibility: 3 mile(s):0
Sky conditions: mostly clear
Weather: haze
Temperature: 78 F (26 C)
Dew Point: 71 F (22 C)
Relative Humidity: 78%
Pressure (altimeter): 29.83 in. Hg (1010 hPa)
ob: WARR 281600Z 22004KT 5000 HZ FEW020 26/22 Q1010 NOSIG
cycle: 16

Station Type Date Time Source
WARR TAF 2021/09/28 12:06 UTC NOAA

TAF WARR 281100Z 2812/2912 08012KT 8000 SCT020
BECMG 2816/2819 25006KT 5000 HZ
BECMG 2900/2902 09010KT 9999

Example: see airport list